»·PEaware :: UAL576 KPSP-KSBA

UAL576 :: KPSP-KSBA

FLIGHT INFORMATION

Flight Status: Arrived
Operator:
United Airlines
More flights by this operator :: More flights under this callsign
Pilot: Anonymous 8274 (8274)
Aircraft: BOEING 737-300
(B733)
More flights by this aircraft type
Origin: KPSP Palm Springs Intl
United States
Destination: KSBA Santa Barbara Mun
United States
More flights between these airports :: More routes between these airports
Route: +CATH1 PSP V388 PDZ V197 POM V264 ITSME V186 DEANO V27 KWANG
File this flight plan on PilotEdge
Remarks:
Altitude:
(Current/Filed)
12,000ft
Speed:
(Current/Filed)
320kts
Departed: 23-Dec-17 10:39 PM
Arrived: 23-Dec-17 11:23 PM
Distance/Time
Traveled:
171nm/0:44
Distance/Time
To Go:
Arrived

Flight Plot

Page will automatically refresh every two minutes.


Map Options




Map Legend


Flown Route
Filed Route
Departure Airport
Arrival Airport
Navaid (VOR, NDB)
Fix

Horizontal Profiles

Position Reports

Time Latitude Longitude Heading Altitude Ground
Speed
23-Dec-17 22:28 33.823711 -116.506188 225 484ft 0kts
23-Dec-17 22:29 33.823711 -116.506188 225 484ft 0kts
23-Dec-17 22:30 33.823711 -116.506188 225 484ft 0kts
23-Dec-17 22:31 33.823711 -116.506188 225 484ft 0kts
23-Dec-17 22:32 33.823711 -116.506188 225 484ft 0kts
23-Dec-17 22:33 33.823711 -116.506188 225 484ft 0kts
23-Dec-17 22:34 33.823711 -116.506188 225 484ft 0kts
23-Dec-17 22:35 33.823711 -116.506188 225 484ft 0kts
23-Dec-17 22:36 33.823711 -116.506188 225 484ft 0kts
23-Dec-17 22:37 33.824067 -116.506012 182 484ft 3kts
23-Dec-17 22:38 33.824022 -116.506014 182 484ft 0kts
23-Dec-17 22:39 33.823068 -116.504391 99 484ft 13kts
23-Dec-17 22:40 33.818502 -116.499318 92 484ft 16kts
23-Dec-17 22:41 33.818504 -116.499098 86 484ft 0kts
23-Dec-17 22:42 33.818504 -116.499098 86 484ft 0kts
23-Dec-17 22:43 33.818504 -116.499094 86 484ft 0kts
23-Dec-17 22:44 33.818955 -116.498258 359 484ft 9kts
23-Dec-17 22:45 33.840069 -116.517568 319 1519ft 155kts
23-Dec-17 22:46 33.876690 -116.558023 341 3314ft 221kts
23-Dec-17 22:47 33.917405 -116.511068 92 6113ft 248kts
23-Dec-17 22:48 33.878760 -116.442164 130 8904ft 262kts
23-Dec-17 22:49 33.840200 -116.360233 116 11125ft 296kts
23-Dec-17 22:50 33.802792 -116.271869 116 12062ft 305kts
23-Dec-17 22:51 33.740193 -116.232319 219 12007ft 281kts
23-Dec-17 22:52 33.746465 -116.305342 321 12023ft 264kts
23-Dec-17 22:53 33.812652 -116.370682 319 11973ft 342kts
23-Dec-17 22:54 33.882913 -116.448999 297 12003ft 355kts
23-Dec-17 22:55 33.905799 -116.566667 286 12041ft 364kts
23-Dec-17 22:56 33.930909 -116.669081 287 12008ft 364kts
23-Dec-17 22:57 33.950065 -116.780153 265 12052ft 368kts
23-Dec-17 22:58 33.943320 -116.901905 268 12128ft 377kts
23-Dec-17 22:59 33.938871 -117.025505 269 12119ft 365kts
23-Dec-17 23:00 33.934494 -117.148936 269 11981ft 372kts
23-Dec-17 23:01 33.929160 -117.270739 269 11985ft 368kts
23-Dec-17 23:02 33.923880 -117.393894 269 11985ft 368kts
23-Dec-17 23:03 33.918876 -117.515704 269 11986ft 369kts
23-Dec-17 23:04 33.963852 -117.613988 315 11997ft 362kts
23-Dec-17 23:05 34.014537 -117.685669 308 11973ft 362kts
23-Dec-17 23:06 34.075525 -117.782492 307 11984ft 363kts
23-Dec-17 23:07 34.079950 -117.900526 265 11960ft 373kts
23-Dec-17 23:08 34.076188 -118.020515 282 11940ft 367kts
23-Dec-17 23:09 34.110907 -118.123759 292 11946ft 366kts
23-Dec-17 23:10 34.144817 -118.232546 291 11968ft 366kts
23-Dec-17 23:11 34.177319 -118.339110 291 11986ft 367kts
23-Dec-17 23:12 34.210870 -118.449423 291 11981ft 368kts
23-Dec-17 23:13 34.245889 -118.556578 294 11985ft 370kts
23-Dec-17 23:14 34.282490 -118.663146 293 11965ft 369kts
23-Dec-17 23:15 34.320269 -118.773698 293 11986ft 366kts
23-Dec-17 23:16 34.357970 -118.885333 290 11956ft 366kts
23-Dec-17 23:17 34.348848 -119.005211 265 11963ft 371kts
23-Dec-17 23:18 34.339125 -119.123034 266 10313ft 327kts
23-Dec-17 23:19 34.331485 -119.222821 266 9168ft 274kts
23-Dec-17 23:20 34.325139 -119.307162 266 8730ft 238kts
23-Dec-17 23:21 34.318167 -119.387532 264 6772ft 244kts
23-Dec-17 23:22 34.311960 -119.465697 265 5996ft 225kts
23-Dec-17 23:23 34.313151 -119.540367 291 5024ft 228kts
23-Dec-17 23:24 34.337523 -119.610730 292 3961ft 213kts
23-Dec-17 23:25 34.364534 -119.667960 304 3452ft 192kts
23-Dec-17 23:26 34.395454 -119.717803 309 2267ft 180kts
23-Dec-17 23:27 34.419792 -119.753583 306 1817ft 134kts
23-Dec-17 23:28 34.428392 -119.808022 268 621ft 146kts
23-Dec-17 23:29 34.427602 -119.849765 268 20ft 40kts
23-Dec-17 23:30 34.426698 -119.851760 151 20ft 0kts
23-Dec-17 23:31 34.426462 -119.851340 100 20ft 10kts
23-Dec-17 23:32 34.427874 -119.836015 269 65ft 141kts
23-Dec-17 23:33 34.427584 -119.850742 268 20ft 24kts
23-Dec-17 23:34 34.427891 -119.834826 268 87ft 142kts
23-Dec-17 23:35 34.426698 -119.851760 151 20ft 0kts
23-Dec-17 23:36 34.426693 -119.851757 151 20ft 0kts
23-Dec-17 23:37 34.426461 -119.850091 87 20ft 14kts
23-Dec-17 23:38 34.426514 -119.844176 90 20ft 20kts
23-Dec-17 23:39 34.426736 -119.836618 88 20ft 24kts
23-Dec-17 23:40 34.427525 -119.853077 268 39ft 190kts
23-Dec-17 23:41 34.437863 -119.836999 50 283ft 312kts
23-Dec-17 23:42 34.427562 -119.845514 265 123ft 333kts
23-Dec-17 23:43 34.403551 -119.877667 188 -3ft 12kts
23-Dec-17 23:44 34.401871 -119.878348 191 -4ft 2kts

Navigation Log

Ident Type
1. KPSP Airport
2. PSP Navaid
3. DEWAY Fix
4. ACINS Fix
5. LENHO Fix
6. KNDAL Fix
7. PDZ Navaid
8. POM Navaid
9. COVIN Fix
10. HOPUN Fix
11. ITSME Fix
12. ELMOO Fix
13. PURMS Fix
14. DARTS Fix
15. VNY Navaid
16. SESPE Fix
17. FIM Navaid
18. HENER Fix
19. DEANO Fix
20. KWANG Fix
21. KSBA Airport